sensor_id;sensor_type;location;lat;lon;timestamp;temperature;humidity
61672;DHT22;47572;0.00000000;0.00000000;2022-11-20T00:00:04;19.00;63.90
61672;DHT22;47572;0.00000000;0.00000000;2022-11-20T00:02:30;18.90;63.90
61672;DHT22;47572;0.00000000;0.00000000;2022-11-20T00:04:56;18.90;64.10
61672;DHT22;47572;0.00000000;0.00000000;2022-11-20T00:07:23;18.90;64.20
61672;DHT22;47572;0.00000000;0.00000000;2022-11-20T00:09:48;18.80;64.20
61672;DHT22;47572;0.00000000;0.00000000;2022-11-20T00:12:19;18.80;64.30
61672;DHT22;47572;0.00000000;0.00000000;2022-11-20T00:14:45;18.70;64.30
61672;DHT22;47572;0.00000000;0.00000000;2022-11-20T00:17:11;18.70;64.40
61672;DHT22;47572;0.00000000;0.00000000;2022-11-20T00:19:37;18.70;64.50
61672;DHT22;47572;0.00000000;0.00000000;2022-11-20T00:22:02;18.70;64.60
61672;DHT22;47572;0.00000000;0.00000000;2022-11-20T00:24:29;18.60;64.60
61672;DHT22;47572;0.00000000;0.00000000;2022-11-20T00:26:55;18.60;64.60
61672;DHT22;47572;0.00000000;0.00000000;2022-11-20T00:29:20;18.60;64.80
61672;DHT22;47572;0.00000000;0.00000000;2022-11-20T00:31:46;18.60;64.80
61672;DHT22;47572;0.00000000;0.00000000;2022-11-20T00:34:12;18.50;64.90
61672;DHT22;47572;0.00000000;0.00000000;2022-11-20T00:36:37;18.50;64.90
61672;DHT22;47572;0.00000000;0.00000000;2022-11-20T00:39:03;18.50;65.00
61672;DHT22;47572;0.00000000;0.00000000;2022-11-20T00:41:29;18.50;65.00
61672;DHT22;47572;0.00000000;0.00000000;2022-11-20T00:43:55;18.40;65.10
61672;DHT22;47572;0.00000000;0.00000000;2022-11-20T00:46:22;18.40;65.20
61672;DHT22;47572;0.00000000;0.00000000;2022-11-20T00:48:48;18.40;65.20
61672;DHT22;47572;0.00000000;0.00000000;2022-11-20T00:51:15;18.40;65.30
61672;DHT22;47572;0.00000000;0.00000000;2022-11-20T00:53:41;18.30;65.30
61672;DHT22;47572;0.00000000;0.00000000;2022-11-20T00:56:07;18.30;65.30
61672;DHT22;47572;0.00000000;0.00000000;2022-11-20T00:58:35;18.30;65.40
61672;DHT22;47572;0.00000000;0.00000000;2022-11-20T01:01:11;18.30;65.40
61672;DHT22;47572;0.00000000;0.00000000;2022-11-20T01:03:38;18.20;65.40
61672;DHT22;47572;0.00000000;0.00000000;2022-11-20T01:06:06;18.20;65.50
61672;DHT22;47572;0.00000000;0.00000000;2022-11-20T01:08:32;18.20;65.50
61672;DHT22;47572;0.00000000;0.00000000;2022-11-20T01:11:09;18.20;65.60
61672;DHT22;47572;0.00000000;0.00000000;2022-11-20T01:13:35;18.20;65.70
61672;DHT22;47572;0.00000000;0.00000000;2022-11-20T01:16:05;18.20;65.60
61672;DHT22;47572;0.00000000;0.00000000;2022-11-20T01:18:31;18.10;65.70
61672;DHT22;47572;0.00000000;0.00000000;2022-11-20T01:21:04;18.10;65.80
61672;DHT22;47572;0.00000000;0.00000000;2022-11-20T01:23:31;18.10;65.80
61672;DHT22;47572;0.00000000;0.00000000;2022-11-20T01:25:59;18.10;65.80
61672;DHT22;47572;0.00000000;0.00000000;2022-11-20T01:28:24;18.10;65.80
61672;DHT22;47572;0.00000000;0.00000000;2022-11-20T01:30:50;18.10;65.90
61672;DHT22;47572;0.00000000;0.00000000;2022-11-20T01:33:16;18.00;65.80
61672;DHT22;47572;0.00000000;0.00000000;2022-11-20T01:35:44;18.00;65.80
61672;DHT22;47572;0.00000000;0.00000000;2022-11-20T01:38:12;18.00;65.90
61672;DHT22;47572;0.00000000;0.00000000;2022-11-20T01:40:38;18.00;65.90
61672;DHT22;47572;0.00000000;0.00000000;2022-11-20T01:43:11;18.00;65.90
61672;DHT22;47572;0.00000000;0.00000000;2022-11-20T01:45:52;18.00;66.00
61672;DHT22;47572;0.00000000;0.00000000;2022-11-20T01:48:21;18.00;66.00
61672;DHT22;47572;0.00000000;0.00000000;2022-11-20T01:50:48;17.90;66.00
61672;DHT22;47572;0.00000000;0.00000000;2022-11-20T01:53:15;17.90;66.00
61672;DHT22;47572;0.00000000;0.00000000;2022-11-20T01:55:44;17.90;66.00
61672;DHT22;47572;0.00000000;0.00000000;2022-11-20T01:58:11;17.90;66.00
61672;DHT22;47572;0.00000000;0.00000000;2022-11-20T02:00:37;17.90;66.00
61672;DHT22;47572;0.00000000;0.00000000;2022-11-20T02:03:12;17.90;66.10
61672;DHT22;47572;0.00000000;0.00000000;2022-11-20T02:08:13;17.90;66.20
61672;DHT22;47572;0.00000000;0.00000000;2022-11-20T02:10:39;17.90;66.20
61672;DHT22;47572;0.00000000;0.00000000;2022-11-20T02:13:05;17.80;66.10
61672;DHT22;47572;0.00000000;0.00000000;2022-11-20T02:15:50;17.80;66.20
61672;DHT22;47572;0.00000000;0.00000000;2022-11-20T02:18:16;17.80;66.20
61672;DHT22;47572;0.00000000;0.00000000;2022-11-20T02:20:43;17.80;66.20
61672;DHT22;47572;0.00000000;0.00000000;2022-11-20T02:23:14;17.80;66.30
61672;DHT22;47572;0.00000000;0.00000000;2022-11-20T02:25:42;17.80;66.30
61672;DHT22;47572;0.00000000;0.00000000;2022-11-20T02:28:08;17.70;66.20
61672;DHT22;47572;0.00000000;0.00000000;2022-11-20T02:30:35;17.80;66.30
61672;DHT22;47572;0.00000000;0.00000000;2022-11-20T02:33:00;17.70;66.30
61672;DHT22;47572;0.00000000;0.00000000;2022-11-20T02:37:53;17.70;66.30
61672;DHT22;47572;0.00000000;0.00000000;2022-11-20T02:40:19;17.70;66.30
61672;DHT22;47572;0.00000000;0.00000000;2022-11-20T02:42:44;17.70;66.30
61672;DHT22;47572;0.00000000;0.00000000;2022-11-20T02:45:10;17.70;66.30
61672;DHT22;47572;0.00000000;0.00000000;2022-11-20T02:47:36;17.70;66.30
61672;DHT22;47572;0.00000000;0.00000000;2022-11-20T02:50:02;17.70;67.10
61672;DHT22;47572;0.00000000;0.00000000;2022-11-20T02:52:28;17.70;66.30
61672;DHT22;47572;0.00000000;0.00000000;2022-11-20T02:54:54;17.60;66.20
61672;DHT22;47572;0.00000000;0.00000000;2022-11-20T02:57:20;17.60;66.20
61672;DHT22;47572;0.00000000;0.00000000;2022-11-20T02:59:45;17.60;66.20
61672;DHT22;47572;0.00000000;0.00000000;2022-11-20T03:02:11;17.60;66.20
61672;DHT22;47572;0.00000000;0.00000000;2022-11-20T03:04:37;17.60;66.20
61672;DHT22;47572;0.00000000;0.00000000;2022-11-20T03:07:03;17.60;66.20
61672;DHT22;47572;0.00000000;0.00000000;2022-11-20T03:09:30;17.60;66.20
61672;DHT22;47572;0.00000000;0.00000000;2022-11-20T03:11:56;17.60;66.20
61672;DHT22;47572;0.00000000;0.00000000;2022-11-20T03:14:21;17.50;66.20
61672;DHT22;47572;0.00000000;0.00000000;2022-11-20T03:16:47;17.60;66.20
61672;DHT22;47572;0.00000000;0.00000000;2022-11-20T03:19:13;17.50;66.20
61672;DHT22;47572;0.00000000;0.00000000;2022-11-20T03:21:39;17.50;66.10
61672;DHT22;47572;0.00000000;0.00000000;2022-11-20T03:24:05;17.50;66.20
61672;DHT22;47572;0.00000000;0.00000000;2022-11-20T03:26:30;17.50;66.20
61672;DHT22;47572;0.00000000;0.00000000;2022-11-20T03:28:57;17.50;67.00
61672;DHT22;47572;0.00000000;0.00000000;2022-11-20T03:31:24;17.50;66.20
61672;DHT22;47572;0.00000000;0.00000000;2022-11-20T03:33:50;17.50;66.20
61672;DHT22;47572;0.00000000;0.00000000;2022-11-20T03:36:16;17.50;66.30
61672;DHT22;47572;0.00000000;0.00000000;2022-11-20T03:38:43;17.50;66.20
61672;DHT22;47572;0.00000000;0.00000000;2022-11-20T03:41:18;17.50;66.30
61672;DHT22;47572;0.00000000;0.00000000;2022-11-20T03:43:48;17.50;66.10
61672;DHT22;47572;0.00000000;0.00000000;2022-11-20T03:46:14;17.40;66.20
61672;DHT22;47572;0.00000000;0.00000000;2022-11-20T03:48:41;17.40;66.20
61672;DHT22;47572;0.00000000;0.00000000;2022-11-20T03:53:36;17.40;66.20
61672;DHT22;47572;0.00000000;0.00000000;2022-11-20T03:56:02;17.40;66.20
61672;DHT22;47572;0.00000000;0.00000000;2022-11-20T03:58:27;17.40;66.20
61672;DHT22;47572;0.00000000;0.00000000;2022-11-20T04:00:53;17.40;66.20
61672;DHT22;47572;0.00000000;0.00000000;2022-11-20T04:03:19;17.40;66.20
61672;DHT22;47572;0.00000000;0.00000000;2022-11-20T04:05:45;17.40;66.20
61672;DHT22;47572;0.00000000;0.00000000;2022-11-20T04:08:11;17.40;66.20
61672;DHT22;47572;0.00000000;0.00000000;2022-11-20T04:10:38;17.40;66.20
61672;DHT22;47572;0.00000000;0.00000000;2022-11-20T04:13:03;17.40;66.20
61672;DHT22;47572;0.00000000;0.00000000;2022-11-20T04:15:29;17.40;66.30
61672;DHT22;47572;0.00000000;0.00000000;2022-11-20T04:17:55;17.30;66.20
61672;DHT22;47572;0.00000000;0.00000000;2022-11-20T04:20:21;17.30;66.20
61672;DHT22;47572;0.00000000;0.00000000;2022-11-20T04:22:47;17.30;67.10
61672;DHT22;47572;0.00000000;0.00000000;2022-11-20T04:25:13;17.30;66.30
61672;DHT22;47572;0.00000000;0.00000000;2022-11-20T04:27:40;17.30;66.30
61672;DHT22;47572;0.00000000;0.00000000;2022-11-20T04:30:06;17.30;66.20
61672;DHT22;47572;0.00000000;0.00000000;2022-11-20T04:32:32;17.30;66.30
61672;DHT22;47572;0.00000000;0.00000000;2022-11-20T04:34:58;17.30;66.40
61672;DHT22;47572;0.00000000;0.00000000;2022-11-20T04:37:23;17.30;66.30
61672;DHT22;47572;0.00000000;0.00000000;2022-11-20T04:39:49;17.20;66.30
61672;DHT22;47572;0.00000000;0.00000000;2022-11-20T04:42:15;17.30;66.40
61672;DHT22;47572;0.00000000;0.00000000;2022-11-20T04:44:56;17.20;66.30
61672;DHT22;47572;0.00000000;0.00000000;2022-11-20T04:47:22;17.30;66.40
61672;DHT22;47572;0.00000000;0.00000000;2022-11-20T04:49:48;17.20;66.30
61672;DHT22;47572;0.00000000;0.00000000;2022-11-20T04:52:14;17.20;66.30
61672;DHT22;47572;0.00000000;0.00000000;2022-11-20T04:54:40;17.20;66.40
61672;DHT22;47572;0.00000000;0.00000000;2022-11-20T04:57:05;17.20;66.30
61672;DHT22;47572;0.00000000;0.00000000;2022-11-20T04:59:31;17.20;66.40
61672;DHT22;47572;0.00000000;0.00000000;2022-11-20T05:01:57;17.20;66.40
61672;DHT22;47572;0.00000000;0.00000000;2022-11-20T05:04:23;17.20;66.40
61672;DHT22;47572;0.00000000;0.00000000;2022-11-20T05:06:49;17.20;66.40
61672;DHT22;47572;0.00000000;0.00000000;2022-11-20T05:09:15;17.20;66.40
61672;DHT22;47572;0.00000000;0.00000000;2022-11-20T05:11:41;17.10;66.40
61672;DHT22;47572;0.00000000;0.00000000;2022-11-20T05:14:07;17.20;66.40
61672;DHT22;47572;0.00000000;0.00000000;2022-11-20T05:16:34;17.10;66.40
61672;DHT22;47572;0.00000000;0.00000000;2022-11-20T05:19:01;17.10;66.40
61672;DHT22;47572;0.00000000;0.00000000;2022-11-20T05:21:29;17.10;66.40
61672;DHT22;47572;0.00000000;0.00000000;2022-11-20T05:23:55;17.10;66.40
61672;DHT22;47572;0.00000000;0.00000000;2022-11-20T05:26:21;17.10;66.40
61672;DHT22;47572;0.00000000;0.00000000;2022-11-20T05:28:48;17.10;66.40
61672;DHT22;47572;0.00000000;0.00000000;2022-11-20T05:31:18;17.10;66.50
61672;DHT22;47572;0.00000000;0.00000000;2022-11-20T05:33:44;17.10;66.40
61672;DHT22;47572;0.00000000;0.00000000;2022-11-20T05:36:10;17.10;66.50
61672;DHT22;47572;0.00000000;0.00000000;2022-11-20T05:38:36;17.10;66.60
61672;DHT22;47572;0.00000000;0.00000000;2022-11-20T05:41:03;17.10;66.60
61672;DHT22;47572;0.00000000;0.00000000;2022-11-20T05:43:31;17.10;66.60
61672;DHT22;47572;0.00000000;0.00000000;2022-11-20T05:45:56;17.10;66.60
61672;DHT22;47572;0.00000000;0.00000000;2022-11-20T05:48:22;17.10;66.60
61672;DHT22;47572;0.00000000;0.00000000;2022-11-20T05:50:48;17.10;66.60
61672;DHT22;47572;0.00000000;0.00000000;2022-11-20T05:53:14;17.00;66.60
61672;DHT22;47572;0.00000000;0.00000000;2022-11-20T05:55:39;17.00;66.60
61672;DHT22;47572;0.00000000;0.00000000;2022-11-20T05:58:06;17.00;66.70
61672;DHT22;47572;0.00000000;0.00000000;2022-11-20T06:00:32;17.00;66.60
61672;DHT22;47572;0.00000000;0.00000000;2022-11-20T06:02:58;17.00;66.60
61672;DHT22;47572;0.00000000;0.00000000;2022-11-20T06:05:24;17.00;66.60
61672;DHT22;47572;0.00000000;0.00000000;2022-11-20T06:07:49;17.00;66.60
61672;DHT22;47572;0.00000000;0.00000000;2022-11-20T06:10:15;17.00;66.60
61672;DHT22;47572;0.00000000;0.00000000;2022-11-20T06:12:42;17.00;66.70
61672;DHT22;47572;0.00000000;0.00000000;2022-11-20T06:15:08;17.00;66.70
61672;DHT22;47572;0.00000000;0.00000000;2022-11-20T06:17:34;17.00;66.70
61672;DHT22;47572;0.00000000;0.00000000;2022-11-20T06:19:59;17.00;66.80
61672;DHT22;47572;0.00000000;0.00000000;2022-11-20T06:22:25;17.00;66.80
61672;DHT22;47572;0.00000000;0.00000000;2022-11-20T06:24:51;17.00;66.80
61672;DHT22;47572;0.00000000;0.00000000;2022-11-20T06:27:17;16.90;66.70
61672;DHT22;47572;0.00000000;0.00000000;2022-11-20T06:29:43;16.90;66.70
61672;DHT22;47572;0.00000000;0.00000000;2022-11-20T06:32:09;16.90;66.80
61672;DHT22;47572;0.00000000;0.00000000;2022-11-20T06:34:34;16.90;66.80
61672;DHT22;47572;0.00000000;0.00000000;2022-11-20T06:37:00;16.90;66.80
61672;DHT22;47572;0.00000000;0.00000000;2022-11-20T06:39:26;16.90;66.80
61672;DHT22;47572;0.00000000;0.00000000;2022-11-20T06:41:52;16.90;66.90
61672;DHT22;47572;0.00000000;0.00000000;2022-11-20T06:44:18;16.90;66.90
61672;DHT22;47572;0.00000000;0.00000000;2022-11-20T06:46:44;16.90;66.80
61672;DHT22;47572;0.00000000;0.00000000;2022-11-20T06:49:09;16.90;66.80
61672;DHT22;47572;0.00000000;0.00000000;2022-11-20T06:51:35;16.90;66.80
61672;DHT22;47572;0.00000000;0.00000000;2022-11-20T06:54:01;16.90;66.80
61672;DHT22;47572;0.00000000;0.00000000;2022-11-20T06:56:27;16.90;66.90
61672;DHT22;47572;0.00000000;0.00000000;2022-11-20T06:58:53;16.80;66.70
61672;DHT22;47572;0.00000000;0.00000000;2022-11-20T07:01:19;16.90;66.80
61672;DHT22;47572;0.00000000;0.00000000;2022-11-20T07:03:45;16.80;66.70
61672;DHT22;47572;0.00000000;0.00000000;2022-11-20T07:06:11;16.80;66.80
61672;DHT22;47572;0.00000000;0.00000000;2022-11-20T07:08:36;16.80;66.80
61672;DHT22;47572;0.00000000;0.00000000;2022-11-20T07:11:03;16.80;66.80
61672;DHT22;47572;0.00000000;0.00000000;2022-11-20T07:13:31;16.80;66.80
61672;DHT22;47572;0.00000000;0.00000000;2022-11-20T07:16:04;16.80;66.80
61672;DHT22;47572;0.00000000;0.00000000;2022-11-20T07:18:30;16.80;66.80
61672;DHT22;47572;0.00000000;0.00000000;2022-11-20T07:20:59;16.80;66.80
61672;DHT22;47572;0.00000000;0.00000000;2022-11-20T07:23:25;16.80;66.80
61672;DHT22;47572;0.00000000;0.00000000;2022-11-20T07:25:52;16.80;66.80
61672;DHT22;47572;0.00000000;0.00000000;2022-11-20T07:28:17;16.70;66.70
61672;DHT22;47572;0.00000000;0.00000000;2022-11-20T07:30:48;16.80;66.80
61672;DHT22;47572;0.00000000;0.00000000;2022-11-20T07:33:14;16.80;66.80
61672;DHT22;47572;0.00000000;0.00000000;2022-11-20T07:35:40;16.70;66.70
61672;DHT22;47572;0.00000000;0.00000000;2022-11-20T07:38:06;16.80;67.60
61672;DHT22;47572;0.00000000;0.00000000;2022-11-20T07:40:32;16.70;66.80
61672;DHT22;47572;0.00000000;0.00000000;2022-11-20T07:42:57;16.70;66.80
61672;DHT22;47572;0.00000000;0.00000000;2022-11-20T07:45:24;16.70;66.70
61672;DHT22;47572;0.00000000;0.00000000;2022-11-20T07:47:50;16.70;66.70
61672;DHT22;47572;0.00000000;0.00000000;2022-11-20T07:50:15;16.70;66.80
61672;DHT22;47572;0.00000000;0.00000000;2022-11-20T07:52:41;16.70;66.80
61672;DHT22;47572;0.00000000;0.00000000;2022-11-20T07:55:08;16.70;66.80
61672;DHT22;47572;0.00000000;0.00000000;2022-11-20T07:57:34;16.70;66.80
61672;DHT22;47572;0.00000000;0.00000000;2022-11-20T08:00:00;16.70;66.80
61672;DHT22;47572;0.00000000;0.00000000;2022-11-20T08:02:25;16.70;66.80
61672;DHT22;47572;0.00000000;0.00000000;2022-11-20T08:04:52;16.70;66.80
61672;DHT22;47572;0.00000000;0.00000000;2022-11-20T08:07:18;16.70;66.80
61672;DHT22;47572;0.00000000;0.00000000;2022-11-20T08:09:44;16.70;66.90
61672;DHT22;47572;0.00000000;0.00000000;2022-11-20T08:12:20;16.70;66.90
61672;DHT22;47572;0.00000000;0.00000000;2022-11-20T08:15:05;16.70;66.90
61672;DHT22;47572;0.00000000;0.00000000;2022-11-20T08:17:31;16.70;66.80
61672;DHT22;47572;0.00000000;0.00000000;2022-11-20T08:19:57;16.60;66.80
61672;DHT22;47572;0.00000000;0.00000000;2022-11-20T08:22:23;16.60;66.80
61672;DHT22;47572;0.00000000;0.00000000;2022-11-20T08:24:49;16.60;66.80
61672;DHT22;47572;0.00000000;0.00000000;2022-11-20T08:27:15;16.60;66.80
61672;DHT22;47572;0.00000000;0.00000000;2022-11-20T08:29:40;16.60;66.80
61672;DHT22;47572;0.00000000;0.00000000;2022-11-20T08:32:06;16.60;66.80
61672;DHT22;47572;0.00000000;0.00000000;2022-11-20T08:34:32;16.60;66.80
61672;DHT22;47572;0.00000000;0.00000000;2022-11-20T08:36:58;16.60;66.80
61672;DHT22;47572;0.00000000;0.00000000;2022-11-20T08:39:24;16.60;66.80
61672;DHT22;47572;0.00000000;0.00000000;2022-11-20T08:41:50;16.60;66.80
61672;DHT22;47572;0.00000000;0.00000000;2022-11-20T08:44:16;16.60;66.90
61672;DHT22;47572;0.00000000;0.00000000;2022-11-20T08:46:42;16.60;66.70
61672;DHT22;47572;0.00000000;0.00000000;2022-11-20T08:49:10;16.50;65.40
61672;DHT22;47572;0.00000000;0.00000000;2022-11-20T08:51:36;16.50;65.50
61672;DHT22;47572;0.00000000;0.00000000;2022-11-20T08:54:02;16.50;66.00
61672;DHT22;47572;0.00000000;0.00000000;2022-11-20T08:56:29;16.50;66.20
61672;DHT22;47572;0.00000000;0.00000000;2022-11-20T08:58:55;16.50;66.40
61672;DHT22;47572;0.00000000;0.00000000;2022-11-20T09:01:21;16.60;66.70
61672;DHT22;47572;0.00000000;0.00000000;2022-11-20T09:03:48;16.60;67.60
61672;DHT22;47572;0.00000000;0.00000000;2022-11-20T09:06:14;16.60;66.80
61672;DHT22;47572;0.00000000;0.00000000;2022-11-20T09:08:40;16.70;66.50
61672;DHT22;47572;0.00000000;0.00000000;2022-11-20T09:11:06;16.80;66.10
61672;DHT22;47572;0.00000000;0.00000000;2022-11-20T09:13:33;16.90;65.90
61672;DHT22;47572;0.00000000;0.00000000;2022-11-20T09:16:01;17.00;65.70
61672;DHT22;47572;0.00000000;0.00000000;2022-11-20T09:18:28;17.10;65.40
61672;DHT22;47572;0.00000000;0.00000000;2022-11-20T09:20:57;17.20;65.10
61672;DHT22;47572;0.00000000;0.00000000;2022-11-20T09:23:23;17.40;65.80
61672;DHT22;47572;0.00000000;0.00000000;2022-11-20T09:25:50;17.50;64.70
61672;DHT22;47572;0.00000000;0.00000000;2022-11-20T09:28:15;17.60;64.50
61672;DHT22;47572;0.00000000;0.00000000;2022-11-20T09:30:43;17.70;64.30
61672;DHT22;47572;0.00000000;0.00000000;2022-11-20T09:33:09;17.80;64.10
61672;DHT22;47572;0.00000000;0.00000000;2022-11-20T09:35:35;17.90;63.90
61672;DHT22;47572;0.00000000;0.00000000;2022-11-20T09:38:04;17.90;63.80
61672;DHT22;47572;0.00000000;0.00000000;2022-11-20T09:40:30;18.00;63.70
61672;DHT22;47572;0.00000000;0.00000000;2022-11-20T09:43:40;18.00;63.50
61672;DHT22;47572;0.00000000;0.00000000;2022-11-20T09:46:05;18.10;63.40
61672;DHT22;47572;0.00000000;0.00000000;2022-11-20T09:51:04;18.20;63.30
61672;DHT22;47572;0.00000000;0.00000000;2022-11-20T09:56:01;18.30;63.10
61672;DHT22;47572;0.00000000;0.00000000;2022-11-20T09:58:34;18.40;63.00
61672;DHT22;47572;0.00000000;0.00000000;2022-11-20T10:01:09;18.40;63.00
61672;DHT22;47572;0.00000000;0.00000000;2022-11-20T10:04:13;18.40;62.80
61672;DHT22;47572;0.00000000;0.00000000;2022-11-20T10:06:56;18.50;62.80
61672;DHT22;47572;0.00000000;0.00000000;2022-11-20T10:09:28;18.50;62.70
61672;DHT22;47572;0.00000000;0.00000000;2022-11-20T10:25:00;18.60;62.20
61672;DHT22;47572;0.00000000;0.00000000;2022-11-20T10:30:06;18.70;62.00
61672;DHT22;47572;0.00000000;0.00000000;2022-11-20T10:32:37;18.80;62.00
61672;DHT22;47572;0.00000000;0.00000000;2022-11-20T10:35:27;18.80;62.00
61672;DHT22;47572;0.00000000;0.00000000;2022-11-20T10:37:55;18.80;62.00
61672;DHT22;47572;0.00000000;0.00000000;2022-11-20T10:40:38;18.80;61.90
61672;DHT22;47572;0.00000000;0.00000000;2022-11-20T10:43:26;18.90;61.90
61672;DHT22;47572;0.00000000;0.00000000;2022-11-20T10:46:03;18.80;61.90
61672;DHT22;47572;0.00000000;0.00000000;2022-11-20T10:48:31;18.90;61.90
61672;DHT22;47572;0.00000000;0.00000000;2022-11-20T10:55:56;18.90;62.00
61672;DHT22;47572;0.00000000;0.00000000;2022-11-20T11:01:05;18.90;61.90
61672;DHT22;47572;0.00000000;0.00000000;2022-11-20T11:03:31;18.90;61.90
61672;DHT22;47572;0.00000000;0.00000000;2022-11-20T11:06:00;18.90;61.90
61672;DHT22;47572;0.00000000;0.00000000;2022-11-20T11:08:28;18.90;62.00
61672;DHT22;47572;0.00000000;0.00000000;2022-11-20T11:13:51;19.00;62.10
61672;DHT22;47572;0.00000000;0.00000000;2022-11-20T11:16:26;19.00;62.10
61672;DHT22;47572;0.00000000;0.00000000;2022-11-20T11:19:12;19.00;62.10
61672;DHT22;47572;0.00000000;0.00000000;2022-11-20T11:21:39;19.10;62.10
61672;DHT22;47572;0.00000000;0.00000000;2022-11-20T11:24:20;19.10;62.00
61672;DHT22;47572;0.00000000;0.00000000;2022-11-20T11:27:00;19.10;62.00
61672;DHT22;47572;0.00000000;0.00000000;2022-11-20T11:29:30;19.10;61.90
61672;DHT22;47572;0.00000000;0.00000000;2022-11-20T11:32:11;19.20;61.90
61672;DHT22;47572;0.00000000;0.00000000;2022-11-20T11:34:37;19.20;61.90
61672;DHT22;47572;0.00000000;0.00000000;2022-11-20T11:37:02;19.20;61.80
61672;DHT22;47572;0.00000000;0.00000000;2022-11-20T11:39:29;19.20;61.70
61672;DHT22;47572;0.00000000;0.00000000;2022-11-20T11:41:58;19.30;61.70
61672;DHT22;47572;0.00000000;0.00000000;2022-11-20T11:44:27;19.30;61.60
61672;DHT22;47572;0.00000000;0.00000000;2022-11-20T11:47:19;19.30;61.50
61672;DHT22;47572;0.00000000;0.00000000;2022-11-20T11:49:46;19.30;61.40
61672;DHT22;47572;0.00000000;0.00000000;2022-11-20T11:52:19;19.30;61.40
61672;DHT22;47572;0.00000000;0.00000000;2022-11-20T11:54:59;19.30;61.50
61672;DHT22;47572;0.00000000;0.00000000;2022-11-20T11:57:28;19.30;61.50
61672;DHT22;47572;0.00000000;0.00000000;2022-11-20T12:00:03;19.40;61.60
61672;DHT22;47572;0.00000000;0.00000000;2022-11-20T12:02:37;19.40;61.60
61672;DHT22;47572;0.00000000;0.00000000;2022-11-20T12:10:39;19.40;61.50
61672;DHT22;47572;0.00000000;0.00000000;2022-11-20T12:15:55;19.40;61.50
61672;DHT22;47572;0.00000000;0.00000000;2022-11-20T12:18:22;19.50;61.30
61672;DHT22;47572;0.00000000;0.00000000;2022-11-20T12:21:36;19.40;61.20
61672;DHT22;47572;0.00000000;0.00000000;2022-11-20T12:31:38;19.40;60.80
61672;DHT22;47572;0.00000000;0.00000000;2022-11-20T12:34:09;19.40;60.80
61672;DHT22;47572;0.00000000;0.00000000;2022-11-20T12:37:00;19.40;60.70
61672;DHT22;47572;0.00000000;0.00000000;2022-11-20T12:39:35;19.40;60.70
61672;DHT22;47572;0.00000000;0.00000000;2022-11-20T12:42:11;19.40;60.50
61672;DHT22;47572;0.00000000;0.00000000;2022-11-20T12:45:02;19.50;60.60
61672;DHT22;47572;0.00000000;0.00000000;2022-11-20T12:50:28;19.50;60.60
61672;DHT22;47572;0.00000000;0.00000000;2022-11-20T12:53:04;19.50;60.50
61672;DHT22;47572;0.00000000;0.00000000;2022-11-20T13:00:38;19.60;60.30
61672;DHT22;47572;0.00000000;0.00000000;2022-11-20T13:08:00;19.60;60.30
61672;DHT22;47572;0.00000000;0.00000000;2022-11-20T13:10:38;19.60;60.30
61672;DHT22;47572;0.00000000;0.00000000;2022-11-20T13:18:27;19.60;60.30
61672;DHT22;47572;0.00000000;0.00000000;2022-11-20T13:21:00;19.60;60.30
61672;DHT22;47572;0.00000000;0.00000000;2022-11-20T13:23:27;19.60;60.30
61672;DHT22;47572;0.00000000;0.00000000;2022-11-20T13:26:03;19.70;60.40
61672;DHT22;47572;0.00000000;0.00000000;2022-11-20T13:28:29;19.70;60.30
61672;DHT22;47572;0.00000000;0.00000000;2022-11-20T13:30:56;19.70;60.30
61672;DHT22;47572;0.00000000;0.00000000;2022-11-20T13:33:27;19.70;60.30
61672;DHT22;47572;0.00000000;0.00000000;2022-11-20T13:35:55;19.70;60.20
61672;DHT22;47572;0.00000000;0.00000000;2022-11-20T13:38:21;19.80;60.30
61672;DHT22;47572;0.00000000;0.00000000;2022-11-20T13:40:55;19.80;60.30
61672;DHT22;47572;0.00000000;0.00000000;2022-11-20T13:43:42;19.80;60.30
61672;DHT22;47572;0.00000000;0.00000000;2022-11-20T13:46:10;19.80;60.30
61672;DHT22;47572;0.00000000;0.00000000;2022-11-20T13:48:44;19.80;60.20
61672;DHT22;47572;0.00000000;0.00000000;2022-11-20T13:59:24;19.70;59.70
61672;DHT22;47572;0.00000000;0.00000000;2022-11-20T14:01:55;19.80;59.70
61672;DHT22;47572;0.00000000;0.00000000;2022-11-20T14:04:29;19.80;59.60
61672;DHT22;47572;0.00000000;0.00000000;2022-11-20T14:06:55;19.80;59.60
61672;DHT22;47572;0.00000000;0.00000000;2022-11-20T14:09:25;19.80;59.40
61672;DHT22;47572;0.00000000;0.00000000;2022-11-20T14:11:51;19.80;59.40
61672;DHT22;47572;0.00000000;0.00000000;2022-11-20T14:14:18;19.80;59.40
61672;DHT22;47572;0.00000000;0.00000000;2022-11-20T14:16:44;19.80;59.40
61672;DHT22;47572;0.00000000;0.00000000;2022-11-20T14:21:47;19.80;59.30
61672;DHT22;47572;0.00000000;0.00000000;2022-11-20T14:24:13;19.80;59.30
61672;DHT22;47572;0.00000000;0.00000000;2022-11-20T14:26:43;19.80;59.30
61672;DHT22;47572;0.00000000;0.00000000;2022-11-20T14:29:16;19.80;59.20
61672;DHT22;47572;0.00000000;0.00000000;2022-11-20T14:31:43;19.90;59.20
61672;DHT22;47572;0.00000000;0.00000000;2022-11-20T14:34:20;19.90;59.20
61672;DHT22;47572;0.00000000;0.00000000;2022-11-20T14:36:46;19.90;59.20
61672;DHT22;47572;0.00000000;0.00000000;2022-11-20T14:39:31;19.90;59.20
61672;DHT22;47572;0.00000000;0.00000000;2022-11-20T14:41:58;19.90;59.20
61672;DHT22;47572;0.00000000;0.00000000;2022-11-20T14:44:27;19.90;59.20
61672;DHT22;47572;0.00000000;0.00000000;2022-11-20T14:46:55;19.90;59.10
61672;DHT22;47572;0.00000000;0.00000000;2022-11-20T14:49:21;19.90;59.10
61672;DHT22;47572;0.00000000;0.00000000;2022-11-20T14:51:57;19.90;59.10
61672;DHT22;47572;0.00000000;0.00000000;2022-11-20T14:54:23;19.90;59.10
61672;DHT22;47572;0.00000000;0.00000000;2022-11-20T14:59:24;19.90;59.10
61672;DHT22;47572;0.00000000;0.00000000;2022-11-20T15:01:54;19.90;59.10
61672;DHT22;47572;0.00000000;0.00000000;2022-11-20T15:04:20;19.90;59.10
61672;DHT22;47572;0.00000000;0.00000000;2022-11-20T15:06:53;20.00;59.10